Klagenfurt, Austria
Current Conditions -  °F | °C
As of 1:50 PM on Thursday 27 Nov 2014 (Local Time) from LOWK Reporting Station
Broken Clouds Broken Clouds  
Wind Chill: 39°   Ceiling: 3000
Heat Index: 39°   Visibility: 6mi
Dew Point: 32°   Wind: 2mph
Humidity: 75%   Direction: NA
Pressure: 30"   Gusts: NA
Location:  46.62°N, 14.31°E
Report Text: LOWK 271150Z VRB02KT 9999 FEW019 SCT028 BKN030 04/00 Q1016 NOSIG
Loading
Personal Weather Stations






























Interactive Weather Map New forecast layout! Learn more

10-Day Weather Forecast

Advertisements
Track Severe Weather on mobile